createdAt,value
2018-08-16T00:00:28.305Z,6.70
2018-08-16T00:02:56.787Z,5.87
2018-08-16T00:05:25.817Z,8.60
2018-08-16T00:07:55.386Z,6.13
2018-08-16T00:10:23.967Z,6.30
2018-08-16T00:12:52.732Z,6.13
2018-08-16T00:15:22.118Z,6.73
2018-08-16T00:17:50.871Z,7.80
2018-08-16T00:20:19.378Z,6.53
2018-08-16T00:22:48.126Z,6.40
2018-08-16T00:25:17.314Z,6.43
2018-08-16T00:27:45.803Z,5.70
2018-08-16T00:30:17.863Z,5.77
2018-08-16T00:32:46.548Z,6.60
2018-08-16T00:35:15.258Z,5.97
2018-08-16T00:37:43.779Z,6.73
2018-08-16T00:40:14.143Z,10.13
2018-08-16T00:42:42.655Z,8.17
2018-08-16T00:45:11.570Z,8.40
2018-08-16T00:47:40.182Z,6.00
2018-08-16T00:50:10.119Z,5.70
2018-08-16T00:52:38.580Z,7.83
2018-08-16T00:55:08.037Z,7.40
2018-08-16T00:57:36.830Z,5.97
2018-08-16T01:00:06.619Z,7.83
2018-08-16T01:02:35.091Z,5.63
2018-08-16T01:05:03.609Z,7.73
2018-08-16T01:07:32.062Z,7.60
2018-08-16T01:10:00.570Z,6.50
2018-08-16T01:12:29.046Z,5.67
2018-08-16T01:14:57.555Z,6.33
2018-08-16T01:17:25.993Z,10.23
2018-08-16T01:19:54.434Z,5.70
2018-08-16T01:22:22.866Z,6.00
2018-08-16T01:24:51.361Z,7.30
2018-08-16T01:27:19.802Z,7.93
2018-08-16T01:29:48.274Z,7.93
2018-08-16T01:32:16.716Z,7.20
2018-08-16T01:34:45.179Z,6.37
2018-08-16T01:37:14.272Z,9.30
2018-08-16T01:39:42.674Z,7.17
2018-08-16T01:42:11.171Z,6.10
2018-08-16T01:44:39.590Z,7.70
2018-08-16T01:47:08.165Z,6.13
2018-08-16T01:49:37.686Z,6.43
2018-08-16T01:52:06.279Z,6.13
2018-08-16T01:54:34.774Z,7.17
2018-08-16T01:57:03.681Z,8.10
2018-08-16T01:59:32.130Z,7.13
2018-08-16T02:02:00.635Z,7.07
2018-08-16T02:04:29.064Z,5.90
2018-08-16T02:06:57.540Z,9.70
2018-08-16T02:09:25.991Z,7.87
2018-08-16T02:11:54.464Z,6.07
2018-08-16T02:14:22.911Z,7.20
2018-08-16T02:16:51.773Z,6.20
2018-08-16T02:19:20.358Z,6.93
2018-08-16T02:21:48.822Z,6.70
2018-08-16T02:24:17.298Z,6.40
2018-08-16T02:26:45.836Z,6.43
2018-08-16T02:29:14.347Z,6.73
2018-08-16T02:31:42.862Z,6.37
2018-08-16T02:34:11.322Z,6.57
2018-08-16T02:36:39.848Z,8.50
2018-08-16T02:39:09.471Z,6.00
2018-08-16T02:41:38.707Z,5.93
2018-08-16T02:44:07.638Z,5.80
2018-08-16T02:46:36.197Z,8.03
2018-08-16T02:49:04.596Z,6.57
2018-08-16T02:51:33.059Z,6.20
2018-08-16T02:54:01.591Z,6.17
2018-08-16T02:56:30.078Z,5.67
2018-08-16T02:58:58.558Z,6.90
2018-08-16T03:01:26.995Z,6.77
2018-08-16T03:03:55.482Z,7.53
2018-08-16T03:06:23.904Z,6.60
2018-08-16T03:08:52.437Z,8.43
2018-08-16T03:11:20.926Z,7.63
2018-08-16T03:13:49.366Z,7.20
2018-08-16T03:16:17.913Z,7.57
2018-08-16T03:18:46.349Z,6.60
2018-08-16T03:21:14.887Z,8.80
2018-08-16T03:23:43.411Z,7.03
2018-08-16T03:26:11.823Z,7.07
2018-08-16T03:28:40.249Z,7.67
2018-08-16T03:31:08.679Z,7.60
2018-08-16T03:33:37.698Z,7.60
2018-08-16T03:36:06.238Z,7.73
2018-08-16T03:38:34.689Z,7.20
2018-08-16T03:41:03.191Z,7.17
2018-08-16T03:43:31.683Z,8.13
2018-08-16T03:46:00.207Z,8.27
2018-08-16T03:48:29.484Z,8.90
2018-08-16T03:50:57.894Z,6.87
2018-08-16T03:53:26.417Z,7.30
2018-08-16T03:55:54.855Z,7.30
2018-08-16T03:58:23.492Z,7.67
2018-08-16T04:00:51.914Z,9.03
2018-08-16T04:03:20.459Z,6.77
2018-08-16T04:05:48.898Z,7.90
2018-08-16T04:08:17.358Z,7.03
2018-08-16T04:10:45.867Z,7.20
2018-08-16T04:13:14.326Z,7.60
2018-08-16T04:15:42.779Z,6.37
2018-08-16T04:18:11.210Z,7.63
2018-08-16T04:20:39.683Z,7.43
2018-08-16T04:23:08.109Z,7.17
2018-08-16T04:25:36.624Z,6.53
2018-08-16T04:28:05.382Z,9.83
2018-08-16T04:30:33.945Z,7.67
2018-08-16T04:33:03.807Z,7.73
2018-08-16T04:35:32.340Z,7.10
2018-08-16T04:38:00.835Z,6.70
2018-08-16T04:40:29.342Z,7.70
2018-08-16T04:42:57.755Z,6.93
2018-08-16T04:45:26.255Z,7.20
2018-08-16T04:47:54.658Z,6.37
2018-08-16T04:50:23.139Z,8.40
2018-08-16T04:52:51.674Z,7.50
2018-08-16T04:55:20.203Z,7.30
2018-08-16T04:57:48.639Z,7.27
2018-08-16T05:00:17.343Z,7.10
2018-08-16T05:02:45.802Z,7.40
2018-08-16T05:05:14.265Z,6.57
2018-08-16T05:07:42.768Z,7.73
2018-08-16T05:10:11.595Z,7.27
2018-08-16T05:12:40.002Z,7.07
2018-08-16T05:15:10.726Z,8.67
2018-08-16T05:17:39.167Z,7.63
2018-08-16T05:20:09.738Z,7.43
2018-08-16T05:22:38.251Z,8.67
2018-08-16T05:25:06.725Z,7.27
2018-08-16T05:27:35.210Z,7.67
2018-08-16T05:30:05.439Z,7.70
2018-08-16T05:32:33.961Z,8.30
2018-08-16T05:35:02.479Z,7.50
2018-08-16T05:37:31.070Z,9.03
2018-08-16T05:39:59.594Z,7.90
2018-08-16T05:42:28.067Z,9.23
2018-08-16T05:44:56.522Z,8.77
2018-08-16T05:47:24.950Z,8.13
2018-08-16T05:49:53.395Z,8.90
2018-08-16T05:52:21.856Z,8.30
2018-08-16T05:54:50.299Z,11.37
2018-08-16T05:57:18.758Z,8.97
2018-08-16T05:59:47.446Z,7.57
2018-08-16T06:02:15.903Z,9.63
2018-08-16T06:04:44.737Z,7.77
2018-08-16T06:07:14.054Z,8.27
2018-08-16T06:09:42.561Z,7.33
2018-08-16T06:12:11.065Z,6.93
2018-08-16T06:14:39.635Z,7.20
2018-08-16T06:17:08.183Z,9.63
2018-08-16T06:19:36.726Z,7.67
2018-08-16T06:22:05.207Z,8.23
2018-08-16T06:24:33.634Z,8.37
2018-08-16T06:27:02.154Z,7.03
2018-08-16T06:29:30.633Z,7.83
2018-08-16T06:31:59.049Z,8.30
2018-08-16T06:34:27.558Z,7.40
2018-08-16T06:36:56.034Z,7.37
2018-08-16T06:39:24.641Z,7.70
2018-08-16T06:41:53.086Z,7.30
2018-08-16T06:44:21.615Z,6.47
2018-08-16T06:46:50.059Z,7.90
2018-08-16T06:49:19.151Z,16.23
2018-08-16T06:51:47.694Z,7.47
2018-08-16T06:54:16.193Z,11.27
2018-08-16T06:56:44.727Z,6.77
2018-08-16T06:59:13.362Z,9.17
2018-08-16T07:01:41.917Z,9.03
2018-08-16T07:04:10.368Z,8.57
2018-08-16T07:06:38.861Z,9.60
2018-08-16T07:09:08.854Z,6.87
2018-08-16T07:11:37.382Z,6.73
2018-08-16T07:14:05.905Z,6.53
2018-08-16T07:16:34.361Z,8.10
2018-08-16T07:19:02.964Z,6.43
2018-08-16T07:21:31.543Z,4.73
2018-08-16T07:24:00.105Z,5.60
2018-08-16T07:26:29.076Z,4.50
2018-08-16T07:28:57.627Z,4.70
2018-08-16T07:31:26.086Z,5.87
2018-08-16T07:33:54.774Z,4.50
2018-08-16T07:36:23.330Z,3.73
2018-08-16T07:38:51.810Z,5.27
2018-08-16T07:41:20.398Z,4.37
2018-08-16T07:43:49.244Z,3.60
2018-08-16T07:46:17.822Z,4.27
2018-08-16T07:48:46.276Z,5.07
2018-08-16T07:51:14.876Z,4.17
2018-08-16T07:53:43.335Z,4.57
2018-08-16T07:56:12.034Z,4.60
2018-08-16T07:58:40.531Z,4.70
2018-08-16T08:01:10.509Z,4.37
2018-08-16T08:03:39.235Z,5.13
2018-08-16T08:06:07.844Z,4.73
2018-08-16T08:08:36.275Z,4.17
2018-08-16T08:11:04.763Z,4.43
2018-08-16T08:13:33.277Z,3.57
2018-08-16T08:16:01.866Z,4.47
2018-08-16T08:18:30.376Z,4.57
2018-08-16T08:20:58.994Z,5.03
2018-08-16T08:23:27.895Z,3.37
2018-08-16T08:25:56.360Z,3.20
2018-08-16T08:28:24.844Z,3.40
2018-08-16T08:30:53.471Z,6.13
2018-08-16T08:33:22.668Z,3.57
2018-08-16T08:36:02.748Z,4.30
2018-08-16T08:38:31.322Z,4.07
2018-08-16T08:40:59.732Z,4.80
2018-08-16T08:43:39.507Z,6.50
2018-08-16T08:46:08.363Z,4.27
2018-08-16T08:48:36.814Z,7.33
2018-08-16T08:51:05.491Z,4.73
2018-08-16T08:54:47.864Z,5.73
2018-08-16T08:57:27.759Z,5.13
2018-08-16T08:59:56.247Z,4.27
2018-08-16T09:02:24.769Z,5.87
2018-08-16T09:05:00.032Z,4.60
2018-08-16T09:07:28.603Z,5.27
2018-08-16T09:11:21.124Z,7.43
2018-08-16T09:14:04.167Z,4.30
2018-08-16T09:16:34.903Z,4.43
2018-08-16T09:19:03.898Z,6.70
2018-08-16T09:21:32.999Z,6.07
2018-08-16T09:24:01.586Z,4.57
2018-08-16T09:26:35.349Z,7.50
2018-08-16T09:29:16.608Z,6.63
2018-08-16T09:31:56.240Z,5.87
2018-08-16T09:34:25.883Z,6.40
2018-08-16T09:36:54.338Z,5.60
2018-08-16T09:39:23.012Z,6.23
2018-08-16T09:41:51.587Z,5.70
2018-08-16T09:44:20.021Z,4.37
2018-08-16T09:47:05.110Z,5.57
2018-08-16T09:49:36.291Z,5.03
2018-08-16T09:52:05.806Z,5.37
2018-08-16T09:54:34.360Z,4.67
2018-08-16T09:57:03.964Z,5.40
2018-08-16T09:59:32.493Z,4.70
2018-08-16T10:02:01.007Z,6.73
2018-08-16T10:04:31.636Z,5.63
2018-08-16T10:07:00.153Z,3.83
2018-08-16T10:09:29.804Z,6.57
2018-08-16T10:11:59.100Z,4.07
2018-08-16T10:14:27.558Z,5.17
2018-08-16T10:16:56.062Z,4.10
2018-08-16T10:19:25.259Z,6.00
2018-08-16T10:21:53.864Z,4.47
2018-08-16T10:24:22.399Z,5.70
2018-08-16T10:26:50.930Z,4.43
2018-08-16T10:29:19.343Z,5.60
2018-08-16T10:31:48.224Z,5.20
2018-08-16T10:34:17.144Z,7.03
2018-08-16T10:36:45.648Z,4.63
2018-08-16T10:39:15.796Z,5.30
2018-08-16T10:41:44.443Z,4.90
2018-08-16T10:44:13.486Z,5.63
2018-08-16T10:46:42.042Z,4.53
2018-08-16T10:49:10.570Z,6.40
2018-08-16T10:51:39.011Z,5.20
2018-08-16T10:54:07.639Z,5.27
2018-08-16T10:56:36.136Z,3.67
2018-08-16T10:59:05.192Z,4.50
2018-08-16T11:01:33.690Z,5.73
2018-08-16T11:04:02.369Z,5.73
2018-08-16T11:06:30.934Z,4.67
2018-08-16T11:08:59.358Z,4.67
2018-08-16T11:11:27.939Z,5.00
2018-08-16T11:13:56.378Z,4.33
2018-08-16T11:16:24.892Z,4.87
2018-08-16T11:18:53.572Z,4.63
2018-08-16T11:21:21.996Z,4.10
2018-08-16T11:23:50.407Z,6.70
2018-08-16T11:26:18.872Z,4.33
2018-08-16T11:28:47.332Z,5.97
2018-08-16T11:31:15.783Z,4.73
2018-08-16T11:33:44.223Z,4.83
2018-08-16T11:36:12.652Z,6.67
2018-08-16T11:38:41.093Z,5.17
2018-08-16T11:41:09.531Z,4.30
2018-08-16T11:43:37.973Z,4.80
2018-08-16T11:46:06.602Z,5.30
2018-08-16T11:48:35.071Z,5.57
2018-08-16T11:51:03.556Z,4.60
2018-08-16T11:53:32.003Z,4.83
2018-08-16T11:56:00.486Z,4.40
2018-08-16T11:58:28.985Z,4.37
2018-08-16T12:00:57.455Z,4.70
2018-08-16T12:03:25.965Z,7.17
2018-08-16T12:05:54.420Z,6.57
2018-08-16T12:08:22.896Z,4.70
2018-08-16T12:10:51.340Z,4.53
2018-08-16T12:13:19.817Z,7.97
2018-08-16T12:15:48.723Z,9.07
2018-08-16T12:18:17.151Z,5.60
2018-08-16T12:20:45.634Z,6.33
2018-08-16T12:23:14.061Z,6.57
2018-08-16T12:25:42.611Z,9.07
2018-08-16T12:28:11.133Z,5.23
2018-08-16T12:30:39.643Z,6.23
2018-08-16T12:33:08.101Z,7.63
2018-08-16T12:35:36.620Z,7.13
2018-08-16T12:38:05.121Z,7.03
2018-08-16T12:40:33.621Z,7.27
2018-08-16T12:43:02.078Z,7.90
2018-08-16T12:45:30.575Z,7.13
2018-08-16T12:47:59.164Z,5.43
2018-08-16T12:50:27.689Z,7.87
2018-08-16T12:52:56.171Z,5.53
2018-08-16T12:55:24.715Z,10.07
2018-08-16T12:57:53.215Z,8.50
2018-08-16T13:00:21.673Z,8.03
2018-08-16T13:02:50.235Z,7.43
2018-08-16T13:05:19.588Z,8.93
2018-08-16T13:07:48.251Z,8.57
2018-08-16T13:10:16.713Z,7.37
2018-08-16T13:12:45.456Z,5.13
2018-08-16T13:15:13.937Z,8.13
2018-08-16T13:17:42.397Z,7.73
2018-08-16T13:20:11.579Z,8.80
2018-08-16T13:22:40.189Z,8.37
2018-08-16T13:25:09.254Z,9.60
2018-08-16T13:27:37.877Z,6.93
2018-08-16T13:30:07.222Z,10.37
2018-08-16T13:32:35.961Z,7.17
2018-08-16T13:35:04.532Z,7.50
2018-08-16T13:37:33.230Z,6.10
2018-08-16T13:40:01.832Z,7.87
2018-08-16T13:42:31.167Z,7.60
2018-08-16T13:44:59.674Z,7.73
2018-08-16T13:47:28.187Z,5.77
2018-08-16T13:49:56.879Z,9.33
2018-08-16T13:52:25.324Z,8.77
2018-08-16T13:54:53.992Z,11.83
2018-08-16T13:57:22.529Z,5.17
2018-08-16T13:59:51.024Z,9.43
2018-08-16T14:02:19.510Z,7.10
2018-08-16T14:04:47.950Z,6.23
2018-08-16T14:07:16.443Z,7.37
2018-08-16T14:09:45.119Z,5.67
2018-08-16T14:12:13.723Z,7.03
2018-08-16T14:14:42.506Z,6.37
2018-08-16T14:17:11.001Z,6.30
2018-08-16T14:19:39.485Z,10.57
2018-08-16T14:22:08.057Z,6.07
2018-08-16T14:24:36.543Z,6.43
2018-08-16T14:27:05.316Z,5.83
2018-08-16T14:29:34.160Z,6.33
2018-08-16T14:32:02.874Z,6.93
2018-08-16T14:34:31.408Z,5.23
2018-08-16T14:36:59.963Z,5.80
2018-08-16T14:39:28.451Z,7.33
2018-08-16T14:41:57.020Z,8.07
2018-08-16T14:44:25.614Z,5.63
2018-08-16T14:46:54.150Z,6.27
2018-08-16T14:49:22.783Z,7.97
2018-08-16T14:51:51.270Z,11.33
2018-08-16T14:54:19.771Z,5.50
2018-08-16T14:56:48.219Z,7.67
2018-08-16T14:59:16.924Z,6.57
2018-08-16T15:01:45.396Z,7.07
2018-08-16T15:04:14.509Z,6.27
2018-08-16T15:06:42.976Z,6.40
2018-08-16T15:09:12.336Z,7.97
2018-08-16T15:11:41.046Z,7.23
2018-08-16T15:14:09.571Z,5.87
2018-08-16T15:16:38.298Z,4.90
2018-08-16T15:19:07.140Z,8.03
2018-08-16T15:21:35.748Z,7.57
2018-08-16T15:24:04.486Z,5.27
2018-08-16T15:26:33.047Z,6.03
2018-08-16T15:29:01.487Z,6.77
2018-08-16T15:31:29.966Z,6.50
2018-08-16T15:33:58.468Z,5.37
2018-08-16T15:36:26.961Z,5.47
2018-08-16T15:38:55.514Z,7.33
2018-08-16T15:41:23.981Z,6.47
2018-08-16T15:43:52.407Z,8.37
2018-08-16T15:46:20.849Z,6.03
2018-08-16T15:48:49.301Z,5.23
2018-08-16T15:51:17.772Z,5.37
2018-08-16T15:53:46.257Z,6.40
2018-08-16T15:56:14.813Z,5.70
2018-08-16T15:58:43.358Z,6.40
2018-08-16T16:01:12.176Z,6.20
2018-08-16T16:03:40.590Z,7.13
2018-08-16T16:06:09.162Z,5.67
2018-08-16T16:08:37.898Z,7.70
2018-08-16T16:11:06.526Z,6.07
2018-08-16T16:13:35.458Z,7.87
2018-08-16T16:16:03.969Z,4.63
2018-08-16T16:18:32.422Z,5.97
2018-08-16T16:21:00.949Z,5.13
2018-08-16T16:23:29.823Z,6.77
2018-08-16T16:25:58.652Z,6.00
2018-08-16T16:28:27.238Z,7.47
2018-08-16T16:30:56.045Z,6.17
2018-08-16T16:33:25.075Z,5.67
2018-08-16T16:35:53.560Z,5.47
2018-08-16T16:38:22.185Z,7.13
2018-08-16T16:40:50.830Z,5.43
2018-08-16T16:43:19.499Z,5.27
2018-08-16T16:45:48.030Z,5.17
2018-08-16T16:48:16.521Z,5.60
2018-08-16T16:50:45.061Z,7.73
2018-08-16T16:53:13.592Z,7.13
2018-08-16T16:55:42.083Z,6.70
2018-08-16T16:58:10.562Z,9.33
2018-08-16T17:00:39.232Z,7.50
2018-08-16T17:03:07.933Z,6.80
2018-08-16T17:05:36.564Z,6.10
2018-08-16T17:08:05.414Z,7.47
2018-08-16T17:10:39.679Z,6.57
2018-08-16T17:13:08.203Z,9.43
2018-08-16T17:15:36.753Z,6.50
2018-08-16T17:18:05.552Z,6.03
2018-08-16T17:20:34.248Z,6.67
2018-08-16T17:23:03.015Z,5.00
2018-08-16T17:25:31.738Z,6.67
2018-08-16T17:28:00.276Z,4.70
2018-08-16T17:30:28.819Z,5.17
2018-08-16T17:32:57.561Z,6.27
2018-08-16T17:35:26.077Z,10.00
2018-08-16T17:37:54.586Z,5.67
2018-08-16T17:40:23.132Z,7.93
2018-08-16T17:42:51.835Z,8.10
2018-08-16T17:45:20.359Z,7.30
2018-08-16T17:47:48.928Z,10.70
2018-08-16T17:50:17.470Z,7.93
2018-08-16T17:52:46.104Z,8.23
2018-08-16T17:55:14.634Z,8.17
2018-08-16T17:57:43.172Z,10.97
2018-08-16T18:00:12.524Z,8.17
2018-08-16T18:02:41.593Z,9.80
2018-08-16T18:05:10.248Z,7.97
2018-08-16T18:07:38.908Z,8.63
2018-08-16T18:10:08.713Z,7.67
2018-08-16T18:12:37.217Z,8.47
2018-08-16T18:15:08.388Z,10.33
2018-08-16T18:17:36.920Z,9.80
2018-08-16T18:20:06.289Z,7.43
2018-08-16T18:22:35.260Z,12.20
2018-08-16T18:25:04.089Z,9.10
2018-08-16T18:27:32.644Z,9.80
2018-08-16T18:30:01.733Z,9.90
2018-08-16T18:32:30.241Z,9.70
2018-08-16T18:34:59.136Z,16.90
2018-08-16T18:37:28.028Z,9.97
2018-08-16T18:39:57.198Z,12.07
2018-08-16T18:42:25.923Z,13.17
2018-08-16T18:44:55.035Z,11.07
2018-08-16T18:47:24.030Z,10.20
2018-08-16T18:49:52.955Z,12.87
2018-08-16T18:52:22.053Z,13.33
2018-08-16T18:54:50.649Z,15.47
2018-08-16T18:57:19.746Z,9.90
2018-08-16T18:59:49.765Z,9.80
2018-08-16T19:02:18.583Z,12.87
2018-08-16T19:04:47.273Z,12.00
2018-08-16T19:07:15.782Z,9.67
2018-08-16T19:09:44.485Z,9.70
2018-08-16T19:12:13.090Z,9.63
2018-08-16T19:14:41.685Z,13.50
2018-08-16T19:17:10.268Z,10.67
2018-08-16T19:19:39.170Z,13.30
2018-08-16T19:22:07.794Z,12.37
2018-08-16T19:24:36.276Z,13.50
2018-08-16T19:27:06.564Z,10.53
2018-08-16T19:29:35.293Z,11.43
2018-08-16T19:32:03.844Z,12.60
2018-08-16T19:34:32.758Z,11.27
2018-08-16T19:37:01.900Z,10.93
2018-08-16T19:39:30.556Z,11.73
2018-08-16T19:41:59.190Z,12.23
2018-08-16T19:44:27.861Z,10.93
2018-08-16T19:46:56.539Z,12.73
2018-08-16T19:49:25.129Z,14.47
2018-08-16T19:51:53.799Z,13.57
2018-08-16T19:54:22.454Z,13.93
2018-08-16T19:56:51.825Z,11.20
2018-08-16T19:59:20.426Z,16.17
2018-08-16T20:01:48.888Z,11.60
2018-08-16T20:04:17.448Z,11.53
2018-08-16T20:06:46.171Z,11.10
2018-08-16T20:09:14.779Z,14.63
2018-08-16T20:11:43.262Z,11.03
2018-08-16T20:14:11.927Z,14.10
2018-08-16T20:16:40.703Z,12.00
2018-08-16T20:19:10.302Z,12.97
2018-08-16T20:21:38.838Z,12.27
2018-08-16T20:24:07.402Z,11.53
2018-08-16T20:26:35.877Z,13.30
2018-08-16T20:29:04.463Z,13.40
2018-08-16T20:31:32.943Z,12.27
2018-08-16T20:34:01.393Z,13.20
2018-08-16T20:36:29.963Z,11.80
2018-08-16T20:38:58.621Z,13.07
2018-08-16T20:41:27.177Z,12.37
2018-08-16T20:43:56.186Z,11.73
2018-08-16T20:46:24.998Z,12.63
2018-08-16T20:48:53.583Z,14.20
2018-08-16T20:51:22.665Z,11.37
2018-08-16T20:53:51.150Z,17.60
2018-08-16T20:56:20.293Z,13.23
2018-08-16T20:58:48.707Z,14.57
2018-08-16T21:01:17.572Z,12.37
2018-08-16T21:03:46.015Z,13.27
2018-08-16T21:06:14.800Z,14.20
2018-08-16T21:08:43.487Z,11.77
2018-08-16T21:11:11.971Z,12.50
2018-08-16T21:13:40.413Z,12.33
2018-08-16T21:16:08.893Z,12.20
2018-08-16T21:18:37.317Z,14.63
2018-08-16T21:21:06.499Z,11.87
2018-08-16T21:23:34.965Z,12.20
2018-08-16T21:26:03.445Z,13.40
2018-08-16T21:28:31.910Z,12.53
2018-08-16T21:33:35.505Z,12.50
2018-08-16T21:36:03.987Z,13.57
2018-08-16T21:38:32.515Z,14.07
2018-08-16T21:41:00.994Z,12.53
2018-08-16T21:43:29.834Z,12.73
2018-08-16T21:45:58.303Z,16.20
2018-08-16T21:48:27.031Z,13.83
2018-08-16T21:50:55.881Z,12.83
2018-08-16T21:53:24.314Z,13.40
2018-08-16T21:55:52.731Z,12.50
2018-08-16T21:58:21.125Z,16.53
2018-08-16T22:00:52.776Z,13.13
2018-08-16T22:03:22.803Z,14.27
2018-08-16T22:06:01.419Z,15.17
2018-08-16T22:08:40.189Z,12.53
2018-08-16T22:11:09.501Z,12.73
2018-08-16T22:13:38.969Z,13.43
2018-08-16T22:16:08.346Z,12.73
2018-08-16T22:18:37.411Z,14.37
2018-08-16T22:21:06.035Z,12.20
2018-08-16T22:23:34.504Z,13.47
2018-08-16T22:26:03.025Z,13.23
2018-08-16T22:28:31.465Z,12.57
2018-08-16T22:31:00.460Z,13.00
2018-08-16T22:33:29.284Z,14.73
2018-08-16T22:35:58.268Z,13.67
2018-08-16T22:38:26.700Z,15.60
2018-08-16T22:40:55.187Z,16.03
2018-08-16T22:43:23.932Z,13.33
2018-08-16T22:45:52.742Z,14.17
2018-08-16T22:48:21.158Z,15.07
2018-08-16T22:50:49.680Z,13.20
2018-08-16T22:53:18.938Z,14.07
2018-08-16T22:55:47.545Z,14.77
2018-08-16T22:58:16.770Z,13.90
2018-08-16T23:00:45.790Z,13.37
2018-08-16T23:03:14.888Z,13.93
2018-08-16T23:05:43.328Z,13.20
2018-08-16T23:08:12.064Z,13.60
2018-08-16T23:10:41.049Z,13.23
2018-08-16T23:13:09.680Z,15.27
2018-08-16T23:15:38.283Z,14.60
2018-08-16T23:18:07.923Z,13.53
2018-08-16T23:20:36.361Z,13.90
2018-08-16T23:23:05.459Z,14.57
2018-08-16T23:25:34.746Z,14.37
2018-08-16T23:28:03.533Z,13.13
2018-08-16T23:30:32.103Z,14.27
2018-08-16T23:33:00.518Z,13.27
2018-08-16T23:35:29.194Z,13.77
2018-08-16T23:37:57.619Z,13.40
2018-08-16T23:40:26.081Z,15.40
2018-08-16T23:42:54.599Z,14.37
2018-08-16T23:45:23.044Z,13.93
2018-08-16T23:48:03.121Z,13.70
2018-08-16T23:50:32.026Z,14.57
2018-08-16T23:53:00.496Z,14.00
2018-08-16T23:55:29.168Z,17.83
2018-08-16T23:57:57.823Z,19.50
